Gustine, Texas
Current Conditions -  °F | °C
As of 10:15 PM on Sunday 25 Jan 2015 (Local Time) from KMKN Reporting Station
Clear Clear  
Wind Chill: 51°   Ceiling: Unl
Heat Index: 51°   Visibility: 10mi
Dew Point: 31°   Wind: 9mph
Humidity: 46%   Direction: 270°W
Pressure: 30.22"   Gusts: NA
Location:  31.85°N, 98.4°W
Report Text: KMKN 260415Z AUTO 27008KT 10SM CLR 11/00 A3022 RMK AO2 T01081004
Loading
Personal Weather Stations






























Interactive Weather Map New forecast layout! Learn more

10-Day Weather Forecast

Advertisements
Track Severe Weather on mobile